createdAt,value
2019-05-14T00:00:41.629Z,0.00
2019-05-14T00:01:42.215Z,0.00
2019-05-14T00:02:41.366Z,0.00
2019-05-14T00:03:41.340Z,0.00
2019-05-14T00:04:42.306Z,0.00
2019-05-14T00:05:42.485Z,0.00
2019-05-14T00:06:41.823Z,0.00
2019-05-14T00:07:41.412Z,0.00
2019-05-14T00:08:41.841Z,0.00
2019-05-14T00:09:41.322Z,0.00
2019-05-14T00:10:41.206Z,0.00
2019-05-14T00:11:42.065Z,0.00
2019-05-14T00:12:41.902Z,0.00
2019-05-14T00:13:41.306Z,0.00
2019-05-14T00:14:43.364Z,0.00
2019-05-14T00:15:41.412Z,0.00
2019-05-14T00:16:42.378Z,0.00
2019-05-14T00:17:41.645Z,0.00
2019-05-14T00:18:41.951Z,0.00
2019-05-14T00:19:41.691Z,0.00
2019-05-14T00:20:41.963Z,0.00
2019-05-14T00:21:42.332Z,0.00
2019-05-14T00:22:41.664Z,0.00
2019-05-14T00:23:42.037Z,0.00
2019-05-14T00:24:41.680Z,0.00
2019-05-14T00:25:41.907Z,0.00
2019-05-14T00:26:42.677Z,0.00
2019-05-14T00:27:41.414Z,0.00
2019-05-14T00:28:42.203Z,0.00
2019-05-14T00:29:41.876Z,0.00
2019-05-14T00:30:42.238Z,0.00
2019-05-14T00:31:42.514Z,0.00
2019-05-14T00:32:41.423Z,0.00
2019-05-14T00:33:41.900Z,0.00
2019-05-14T00:34:42.415Z,0.00
2019-05-14T00:35:41.335Z,0.00
2019-05-14T00:36:41.730Z,0.00
2019-05-14T00:37:41.441Z,0.00
2019-05-14T00:38:41.966Z,0.00
2019-05-14T00:39:41.705Z,0.00
2019-05-14T00:40:41.992Z,0.00
2019-05-14T00:41:42.046Z,0.00
2019-05-14T00:42:41.467Z,0.00
2019-05-14T00:43:41.580Z,0.00
2019-05-14T00:44:51.577Z,0.00
2019-05-14T00:45:41.794Z,0.00
2019-05-14T00:46:41.094Z,0.00
2019-05-14T00:47:41.776Z,0.00
2019-05-14T00:48:42.016Z,0.00
2019-05-14T00:49:42.290Z,0.00
2019-05-14T00:50:42.133Z,0.00
2019-05-14T00:51:41.314Z,0.00
2019-05-14T00:52:42.202Z,0.00
2019-05-14T00:53:42.069Z,0.00
2019-05-14T00:54:41.617Z,0.00
2019-05-14T00:55:41.955Z,0.00
2019-05-14T00:56:41.684Z,0.00
2019-05-14T00:57:42.412Z,0.00
2019-05-14T00:58:41.452Z,0.00
2019-05-14T00:59:41.663Z,0.00
2019-05-14T01:00:41.827Z,0.00
2019-05-14T01:01:42.268Z,0.00
2019-05-14T01:02:41.615Z,0.00
2019-05-14T01:03:41.458Z,0.00
2019-05-14T01:04:42.505Z,0.00
2019-05-14T01:05:41.405Z,0.00
2019-05-14T01:06:42.119Z,0.00
2019-05-14T01:07:42.085Z,0.00
2019-05-14T01:08:41.374Z,0.00
2019-05-14T01:09:41.846Z,0.00
2019-05-14T01:10:41.785Z,0.00
2019-05-14T01:11:41.928Z,0.00
2019-05-14T01:12:41.369Z,0.00
2019-05-14T01:13:41.634Z,0.00
2019-05-14T01:14:42.125Z,0.00
2019-05-14T01:15:41.524Z,0.00
2019-05-14T01:16:42.231Z,0.00
2019-05-14T01:17:42.003Z,0.00
2019-05-14T01:18:41.470Z,0.00
2019-05-14T01:19:42.183Z,0.00
2019-05-14T01:20:41.153Z,0.00
2019-05-14T01:21:41.762Z,0.00
2019-05-14T01:22:42.055Z,0.00
2019-05-14T01:23:41.521Z,0.00
2019-05-14T01:24:41.641Z,0.00
2019-05-14T01:25:42.054Z,0.00
2019-05-14T01:26:41.632Z,0.00
2019-05-14T01:27:41.403Z,0.00
2019-05-14T01:28:41.500Z,0.00
2019-05-14T01:29:42.166Z,0.00
2019-05-14T01:30:41.109Z,0.00
2019-05-14T01:31:41.599Z,0.00
2019-05-14T01:32:41.860Z,0.00
2019-05-14T01:33:41.067Z,0.00
2019-05-14T01:34:41.837Z,0.00
2019-05-14T01:35:41.877Z,0.00
2019-05-14T01:36:41.390Z,0.00
2019-05-14T01:37:41.576Z,0.00
2019-05-14T01:38:41.726Z,0.00
2019-05-14T01:39:41.709Z,0.00
2019-05-14T01:40:41.785Z,0.00
2019-05-14T01:41:42.097Z,0.00
2019-05-14T01:42:41.592Z,0.00
2019-05-14T01:43:41.746Z,0.00
2019-05-14T01:44:41.303Z,0.00
2019-05-14T01:45:41.559Z,0.00
2019-05-14T01:46:41.835Z,0.00
2019-05-14T01:47:41.440Z,0.00
2019-05-14T01:48:41.614Z,0.00
2019-05-14T01:49:39.512Z,0.00
2019-05-14T01:50:41.406Z,0.00
2019-05-14T01:51:42.121Z,0.00
2019-05-14T01:52:41.467Z,0.00
2019-05-14T01:53:41.492Z,0.00
2019-05-14T01:54:39.472Z,0.00
2019-05-14T01:55:41.298Z,0.00
2019-05-14T01:56:39.433Z,0.00
2019-05-14T01:57:39.413Z,0.00
2019-05-14T01:58:41.534Z,0.00
2019-05-14T01:59:39.395Z,0.00
2019-05-14T02:00:41.483Z,0.00
2019-05-14T02:01:41.498Z,0.00
2019-05-14T02:02:41.551Z,0.00
2019-05-14T02:03:41.093Z,0.00
2019-05-14T02:04:39.334Z,0.00
2019-05-14T02:05:41.475Z,0.00
2019-05-14T02:06:41.354Z,0.00
2019-05-14T02:07:39.313Z,0.00
2019-05-14T02:08:41.294Z,0.00
2019-05-14T02:09:41.787Z,0.00
2019-05-14T02:10:39.269Z,0.00
2019-05-14T02:11:41.303Z,0.00
2019-05-14T02:12:39.267Z,0.00
2019-05-14T02:13:41.272Z,0.00
2019-05-14T02:14:39.238Z,0.00
2019-05-14T02:15:42.734Z,0.00
2019-05-14T02:16:39.236Z,0.00
2019-05-14T02:17:41.350Z,0.00
2019-05-14T02:18:41.453Z,0.00
2019-05-14T02:19:39.197Z,0.00
2019-05-14T02:20:41.330Z,0.00
2019-05-14T02:21:39.160Z,0.00
2019-05-14T02:22:41.105Z,0.00
2019-05-14T02:23:39.155Z,0.00
2019-05-14T02:24:41.484Z,0.00
2019-05-14T02:25:41.158Z,0.00
2019-05-14T02:26:39.119Z,0.00
2019-05-14T02:27:41.183Z,0.00
2019-05-14T02:28:39.081Z,0.00
2019-05-14T02:29:41.388Z,0.00
2019-05-14T02:30:51.913Z,0.00
2019-05-14T02:31:40.051Z,0.00
2019-05-14T02:32:40.461Z,0.00
2019-05-14T02:33:39.637Z,4.00
2019-05-14T02:34:40.031Z,4.00
2019-05-14T02:35:39.818Z,4.00
2019-05-14T02:36:40.287Z,0.00
2019-05-14T02:37:40.177Z,4.00
2019-05-14T02:38:39.080Z,4.00
2019-05-14T02:39:41.107Z,4.00
2019-05-14T02:40:40.366Z,4.00
2019-05-14T02:41:39.408Z,8.00
2019-05-14T02:42:40.101Z,4.00
2019-05-14T02:43:40.828Z,8.00
2019-05-14T02:44:40.779Z,8.00
2019-05-14T02:45:51.033Z,8.00
2019-05-14T02:46:40.615Z,12.00
2019-05-14T02:47:39.908Z,16.00
2019-05-14T02:48:40.120Z,16.00
2019-05-14T02:49:39.825Z,20.00
2019-05-14T02:50:39.672Z,20.00
2019-05-14T02:51:39.226Z,24.00
2019-05-14T02:52:40.197Z,28.00
2019-05-14T02:53:39.205Z,32.00
2019-05-14T02:54:40.421Z,36.00
2019-05-14T02:55:39.113Z,40.00
2019-05-14T02:56:40.160Z,44.00
2019-05-14T02:57:39.562Z,52.00
2019-05-14T02:58:40.229Z,60.00
2019-05-14T02:59:39.640Z,68.00
2019-05-14T03:00:40.803Z,72.00
2019-05-14T03:01:40.598Z,84.00
2019-05-14T03:02:40.260Z,92.00
2019-05-14T03:03:40.235Z,100.00
2019-05-14T03:04:39.434Z,112.00
2019-05-14T03:05:40.177Z,124.00
2019-05-14T03:06:39.492Z,136.00
2019-05-14T03:07:39.620Z,152.00
2019-05-14T03:08:39.193Z,168.00
2019-05-14T03:09:40.307Z,184.00
2019-05-14T03:10:40.300Z,200.00
2019-05-14T03:11:40.396Z,216.00
2019-05-14T03:12:39.532Z,232.00
2019-05-14T03:13:39.999Z,256.00
2019-05-14T03:14:39.582Z,276.00
2019-05-14T03:15:39.241Z,300.00
2019-05-14T03:16:43.662Z,320.00
2019-05-14T03:17:40.442Z,344.00
2019-05-14T03:18:39.735Z,372.00
2019-05-14T03:19:40.770Z,396.00
2019-05-14T03:20:39.223Z,424.00
2019-05-14T03:21:39.609Z,452.00
2019-05-14T03:22:53.418Z,476.00
2019-05-14T03:23:39.603Z,508.00
2019-05-14T03:24:39.684Z,540.00
2019-05-14T03:25:39.935Z,568.00
2019-05-14T03:26:39.805Z,600.00
2019-05-14T03:27:40.589Z,636.00
2019-05-14T03:28:39.831Z,664.00
2019-05-14T03:29:39.936Z,696.00
2019-05-14T03:30:42.278Z,728.00
2019-05-14T03:31:42.713Z,764.00
2019-05-14T03:32:42.611Z,796.00
2019-05-14T03:33:43.862Z,832.00
2019-05-14T03:34:43.258Z,868.00
2019-05-14T03:35:44.347Z,904.00
2019-05-14T03:36:43.083Z,936.00
2019-05-14T03:37:39.115Z,976.00
2019-05-14T03:38:39.709Z,1008.00
2019-05-14T03:39:39.612Z,1040.00
2019-05-14T03:41:14.419Z,1080.00
2019-05-14T03:41:39.735Z,1116.00
2019-05-14T03:42:39.910Z,1152.00
2019-05-14T03:43:39.164Z,1188.00
2019-05-14T03:44:39.991Z,1224.00
2019-05-14T03:45:39.110Z,1260.00
2019-05-14T03:46:45.932Z,1296.00
2019-05-14T03:47:39.642Z,1336.00
2019-05-14T03:48:40.087Z,1364.00
2019-05-14T03:49:39.721Z,1404.00
2019-05-14T03:50:38.968Z,1436.00
2019-05-14T03:51:39.462Z,1468.00
2019-05-14T03:52:39.908Z,1500.00
2019-05-14T03:53:55.279Z,1536.00
2019-05-14T03:54:40.523Z,1568.00
2019-05-14T03:55:40.240Z,1600.00
2019-05-14T03:56:39.441Z,1632.00
2019-05-14T03:57:39.823Z,1664.00
2019-05-14T03:58:39.256Z,1696.00
2019-05-14T03:59:40.231Z,1728.00
2019-05-14T04:00:38.997Z,1760.00
2019-05-14T04:01:40.034Z,1792.00
2019-05-14T04:02:39.150Z,1824.00
2019-05-14T04:03:39.821Z,1856.00
2019-05-14T04:04:39.391Z,1884.00
2019-05-14T04:05:40.159Z,1916.00
2019-05-14T04:06:40.299Z,1948.00
2019-05-14T04:07:50.119Z,1976.00
2019-05-14T04:08:39.159Z,2004.00
2019-05-14T04:09:40.040Z,2032.00
2019-05-14T04:10:39.680Z,2060.00
2019-05-14T04:11:39.808Z,2088.00
2019-05-14T04:12:40.385Z,2116.00
2019-05-14T04:13:40.477Z,2140.00
2019-05-14T04:14:39.865Z,2168.00
2019-05-14T04:15:39.176Z,2192.00
2019-05-14T04:16:39.809Z,2220.00
2019-05-14T04:17:42.142Z,2248.00
2019-05-14T04:18:40.345Z,2276.00
2019-05-14T04:19:39.364Z,2300.00
2019-05-14T04:20:39.268Z,2324.00
2019-05-14T04:21:40.056Z,2352.00
2019-05-14T04:22:39.285Z,2376.00
2019-05-14T04:23:39.736Z,2400.00
2019-05-14T04:24:41.106Z,2428.00
2019-05-14T04:25:38.964Z,2456.00
2019-05-14T04:26:56.219Z,2492.00
2019-05-14T04:27:40.042Z,2516.00
2019-05-14T04:28:39.287Z,2548.00
2019-05-14T04:29:39.599Z,2580.00
2019-05-14T04:30:40.033Z,2600.00
2019-05-14T04:31:39.016Z,2636.00
2019-05-14T04:32:39.456Z,2660.00
2019-05-14T04:33:39.217Z,2696.00
2019-05-14T04:34:39.736Z,2724.00
2019-05-14T04:35:40.082Z,2744.00
2019-05-14T04:36:39.212Z,2772.00
2019-05-14T04:37:39.940Z,2800.00
2019-05-14T04:38:40.839Z,2828.00
2019-05-14T04:39:39.522Z,2828.00
2019-05-14T04:40:39.972Z,2892.00
2019-05-14T04:41:39.335Z,2904.00
2019-05-14T04:42:40.119Z,2980.00
2019-05-14T04:43:39.969Z,2952.00
2019-05-14T04:44:40.369Z,2960.00
2019-05-14T04:45:39.581Z,3108.00
2019-05-14T04:46:39.573Z,3160.00
2019-05-14T04:47:42.083Z,3096.00
2019-05-14T04:48:43.065Z,3096.00
2019-05-14T04:49:39.956Z,3104.00
2019-05-14T04:50:40.472Z,3124.00
2019-05-14T04:51:39.692Z,3164.00
2019-05-14T04:52:40.334Z,3236.00
2019-05-14T04:53:39.422Z,3304.00
2019-05-14T04:54:39.389Z,3328.00
2019-05-14T04:55:40.108Z,3228.00
2019-05-14T04:56:39.816Z,3200.00
2019-05-14T04:57:39.186Z,3172.00
2019-05-14T04:58:40.919Z,4164.00
2019-05-14T04:59:39.664Z,5636.00
2019-05-14T05:00:39.128Z,5456.00
2019-05-14T05:01:40.185Z,4968.00
2019-05-14T05:02:39.732Z,5656.00
2019-05-14T05:03:40.062Z,6312.00
2019-05-14T05:04:40.875Z,6648.00
2019-05-14T05:05:39.412Z,6424.00
2019-05-14T05:06:39.669Z,4272.00
2019-05-14T05:07:40.026Z,3736.00
2019-05-14T05:08:39.488Z,3568.00
2019-05-14T05:09:39.723Z,3508.00
2019-05-14T05:10:39.887Z,3952.00
2019-05-14T05:11:39.407Z,3756.00
2019-05-14T05:12:38.769Z,3632.00
2019-05-14T05:13:39.573Z,3656.00
2019-05-14T05:14:38.853Z,3656.00
2019-05-14T05:15:39.563Z,3652.00
2019-05-14T05:16:39.158Z,3644.00
2019-05-14T05:17:46.603Z,3660.00
2019-05-14T05:18:39.979Z,3660.00
2019-05-14T05:19:39.416Z,3672.00
2019-05-14T05:20:39.337Z,3684.00
2019-05-14T05:21:38.802Z,3696.00
2019-05-14T05:22:39.384Z,3708.00
2019-05-14T05:23:38.699Z,3736.00
2019-05-14T05:24:38.099Z,3776.00
2019-05-14T05:25:38.409Z,3840.00
2019-05-14T05:26:39.219Z,3888.00
2019-05-14T05:27:38.223Z,3920.00
2019-05-14T05:28:39.182Z,4048.00
2019-05-14T05:29:39.292Z,3876.00
2019-05-14T05:30:38.517Z,3864.00
2019-05-14T05:31:38.098Z,3956.00
2019-05-14T05:32:38.874Z,4092.00
2019-05-14T05:33:38.375Z,4472.00
2019-05-14T05:34:38.802Z,4976.00
2019-05-14T05:35:39.241Z,5632.00
2019-05-14T05:36:38.215Z,6412.00
2019-05-14T05:37:38.419Z,7632.00
2019-05-14T05:38:39.469Z,8560.00
2019-05-14T05:39:38.589Z,7916.00
2019-05-14T05:40:39.193Z,6564.00
2019-05-14T05:41:38.496Z,5356.00
2019-05-14T05:42:38.558Z,4708.00
2019-05-14T05:43:39.108Z,4544.00
2019-05-14T05:44:39.162Z,4504.00
2019-05-14T05:45:38.081Z,4488.00
2019-05-14T05:46:38.884Z,4532.00
2019-05-14T05:47:38.980Z,4612.00
2019-05-14T05:48:38.897Z,4708.00
2019-05-14T05:49:38.165Z,4744.00
2019-05-14T05:50:38.925Z,5300.00
2019-05-14T05:51:39.087Z,6344.00
2019-05-14T05:52:38.723Z,6424.00
2019-05-14T05:53:39.070Z,7048.00
2019-05-14T05:54:38.472Z,6736.00
2019-05-14T05:55:39.224Z,6492.00
2019-05-14T05:56:38.808Z,7272.00
2019-05-14T05:57:38.969Z,7700.00
2019-05-14T05:58:39.447Z,8396.00
2019-05-14T05:59:39.069Z,8324.00
2019-05-14T06:00:39.543Z,8716.00
2019-05-14T06:01:42.829Z,7892.00
2019-05-14T06:02:40.065Z,6492.00
2019-05-14T06:03:39.088Z,6764.00
2019-05-14T06:04:38.969Z,8284.00
2019-05-14T06:05:38.940Z,9468.00
2019-05-14T06:06:38.874Z,9672.00
2019-05-14T06:07:39.208Z,9948.00
2019-05-14T06:08:38.776Z,10380.00
2019-05-14T06:09:38.178Z,10512.00
2019-05-14T06:10:36.686Z,11128.00
2019-05-14T06:11:38.069Z,11884.00
2019-05-14T06:12:38.903Z,12676.00
2019-05-14T06:13:38.818Z,17504.00
2019-05-14T06:14:38.233Z,17440.00
2019-05-14T06:15:47.523Z,17856.00
2019-05-14T06:16:38.427Z,16928.00
2019-05-14T06:17:39.014Z,16320.00
2019-05-14T06:18:38.798Z,17216.00
2019-05-14T06:19:38.186Z,17504.00
2019-05-14T06:20:38.719Z,18624.00
2019-05-14T06:21:36.520Z,20480.00
2019-05-14T06:22:38.481Z,16576.00
2019-05-14T06:23:38.608Z,14552.00
2019-05-14T06:24:38.774Z,18304.00
2019-05-14T06:25:39.728Z,13940.00
2019-05-14T06:26:38.430Z,13972.00
2019-05-14T06:27:38.060Z,15088.00
2019-05-14T06:28:40.351Z,12364.00
2019-05-14T06:29:38.257Z,14480.00
2019-05-14T06:30:39.305Z,11644.00
2019-05-14T06:31:38.715Z,8144.00
2019-05-14T06:32:38.721Z,7612.00
2019-05-14T06:33:39.132Z,9212.00
2019-05-14T06:34:38.306Z,10948.00
2019-05-14T06:35:39.348Z,11824.00
2019-05-14T06:36:39.387Z,11936.00
2019-05-14T06:37:38.566Z,10484.00
2019-05-14T06:38:38.611Z,9904.00
2019-05-14T06:39:38.839Z,9652.00
2019-05-14T06:40:36.316Z,10192.00
2019-05-14T06:41:40.201Z,12020.00
2019-05-14T06:42:39.385Z,15500.00
2019-05-14T06:43:36.264Z,18176.00
2019-05-14T06:44:38.376Z,17536.00
2019-05-14T06:45:38.845Z,15232.00
2019-05-14T06:46:36.239Z,14444.00
2019-05-14T06:47:38.200Z,15544.00
2019-05-14T06:48:36.218Z,15212.00
2019-05-14T06:49:38.346Z,14432.00
2019-05-14T06:50:38.953Z,13460.00
2019-05-14T06:51:36.188Z,14412.00
2019-05-14T06:52:38.394Z,24128.00
2019-05-14T06:53:39.109Z,24224.00
2019-05-14T06:54:38.468Z,21120.00
2019-05-14T06:55:36.173Z,23328.00
2019-05-14T06:56:38.382Z,20960.00
2019-05-14T06:57:36.129Z,21280.00
2019-05-14T06:58:38.661Z,21152.00
2019-05-14T06:59:38.044Z,22656.00
2019-05-14T07:00:39.176Z,17696.00
2019-05-14T07:01:38.271Z,18144.00
2019-05-14T07:02:40.669Z,21888.00
2019-05-14T07:03:38.210Z,22592.00
2019-05-14T07:04:36.062Z,18592.00
2019-05-14T07:05:36.520Z,19840.00
2019-05-14T07:06:38.927Z,25728.00
2019-05-14T07:07:36.032Z,26912.00
2019-05-14T07:08:36.000Z,46080.00
2019-05-14T07:09:38.243Z,22656.00
2019-05-14T07:10:36.034Z,33472.00
2019-05-14T07:11:38.632Z,27168.00
2019-05-14T07:12:38.513Z,102880.00
2019-05-14T07:13:38.279Z,41664.00
2019-05-14T07:14:35.952Z,28416.00
2019-05-14T07:15:38.458Z,37024.00
2019-05-14T07:16:38.806Z,26624.00
2019-05-14T07:17:38.176Z,55776.00
2019-05-14T07:18:46.536Z,66240.00
2019-05-14T07:19:38.492Z,26560.00
2019-05-14T07:20:35.869Z,24992.00
2019-05-14T07:21:38.217Z,22112.00
2019-05-14T07:22:35.891Z,20000.00
2019-05-14T07:23:38.412Z,17920.00
2019-05-14T07:24:38.080Z,15708.00
2019-05-14T07:25:35.811Z,16352.00
2019-05-14T07:26:38.533Z,14984.00
2019-05-14T07:27:35.799Z,23360.00
2019-05-14T07:28:35.902Z,30496.00
2019-05-14T07:29:38.618Z,41152.00
2019-05-14T07:30:35.816Z,24480.00
2019-05-14T07:31:38.299Z,25920.00
2019-05-14T07:32:35.752Z,22944.00
2019-05-14T07:33:38.510Z,57088.00
2019-05-14T07:34:35.741Z,39264.00
2019-05-14T07:35:38.085Z,26048.00
2019-05-14T07:36:36.399Z,18400.00
2019-05-14T07:37:35.693Z,18752.00
2019-05-14T07:38:35.701Z,28576.00
2019-05-14T07:39:38.351Z,24640.00
2019-05-14T07:40:38.607Z,21536.00
2019-05-14T07:41:38.779Z,16832.00
2019-05-14T07:42:38.135Z,42720.00
2019-05-14T07:43:36.152Z,47072.00
2019-05-14T07:44:35.645Z,46560.00
2019-05-14T07:45:35.591Z,33824.00
2019-05-14T07:46:35.651Z,21632.00
2019-05-14T07:47:38.608Z,27296.00
2019-05-14T07:48:36.142Z,19456.00
2019-05-14T07:49:35.539Z,17760.00
2019-05-14T07:50:35.558Z,15972.00
2019-05-14T07:51:35.542Z,16512.00
2019-05-14T07:52:35.507Z,17056.00
2019-05-14T07:53:39.678Z,17248.00
2019-05-14T07:54:38.719Z,16416.00
2019-05-14T07:55:35.509Z,20416.00
2019-05-14T07:56:35.478Z,103936.00
2019-05-14T07:57:35.468Z,34400.00
2019-05-14T07:58:35.450Z,34656.00
2019-05-14T07:59:35.448Z,22304.00
2019-05-14T08:00:36.138Z,19808.00
2019-05-14T08:01:35.430Z,19328.00
2019-05-14T08:02:37.855Z,25024.00
2019-05-14T08:03:35.403Z,31744.00
2019-05-14T08:04:38.038Z,129280.00
2019-05-14T08:05:35.369Z,34048.00
2019-05-14T08:06:35.370Z,127360.00
2019-05-14T08:07:35.350Z,74144.00
2019-05-14T08:08:38.310Z,59040.00
2019-05-14T08:09:35.323Z,135776.00
2019-05-14T08:10:35.427Z,27424.00
2019-05-14T08:11:35.373Z,48608.00
2019-05-14T08:12:35.289Z,44160.00
2019-05-14T08:13:35.286Z,34240.00
2019-05-14T08:14:46.263Z,33696.00
2019-05-14T08:15:38.520Z,29568.00
2019-05-14T08:16:35.255Z,116864.00
2019-05-14T08:17:35.272Z,35328.00
2019-05-14T08:18:36.145Z,29312.00
2019-05-14T08:19:35.215Z,27456.00
2019-05-14T08:20:35.203Z,22560.00
2019-05-14T08:21:35.198Z,21216.00
2019-05-14T08:22:35.215Z,21632.00
2019-05-14T08:23:35.185Z,19712.00
2019-05-14T08:24:38.331Z,28352.00
2019-05-14T08:25:35.158Z,21984.00
2019-05-14T08:26:35.162Z,25728.00
2019-05-14T08:27:35.129Z,27392.00
2019-05-14T08:28:35.147Z,23008.00
2019-05-14T08:29:39.138Z,25440.00
2019-05-14T08:30:35.682Z,35168.00
2019-05-14T08:31:35.118Z,36768.00
2019-05-14T08:32:35.079Z,30464.00
2019-05-14T08:33:35.104Z,29312.00
2019-05-14T08:34:35.066Z,88416.00
2019-05-14T08:35:35.312Z,85792.00
2019-05-14T08:36:35.030Z,44256.00
2019-05-14T08:37:35.650Z,125952.00
2019-05-14T08:38:35.026Z,118592.00
2019-05-14T08:39:35.026Z,115360.00
2019-05-14T08:40:34.991Z,25792.00
2019-05-14T08:41:35.028Z,114048.00
2019-05-14T08:42:35.272Z,116512.00
2019-05-14T08:43:34.953Z,107008.00
2019-05-14T08:44:34.950Z,21056.00
2019-05-14T08:45:34.945Z,18720.00
2019-05-14T08:46:34.971Z,19168.00
2019-05-14T08:47:34.950Z,41760.00
2019-05-14T08:48:34.914Z,21376.00
2019-05-14T08:49:41.945Z,21312.00
2019-05-14T08:50:38.749Z,24096.00
2019-05-14T08:51:34.860Z,17792.00
2019-05-14T08:52:35.657Z,17088.00
2019-05-14T08:53:34.866Z,18080.00
2019-05-14T08:54:34.850Z,18272.00
2019-05-14T08:55:37.608Z,20992.00
2019-05-14T08:56:34.820Z,87584.00
2019-05-14T08:57:34.863Z,104480.00
2019-05-14T08:58:34.816Z,49984.00
2019-05-14T08:59:34.793Z,51168.00
2019-05-14T09:00:34.769Z,103936.00
2019-05-14T09:01:34.760Z,108832.00
2019-05-14T09:02:35.662Z,109024.00
2019-05-14T09:03:34.784Z,105216.00
2019-05-14T09:04:34.738Z,112448.00
2019-05-14T09:05:35.672Z,52864.00
2019-05-14T09:06:35.210Z,34944.00
2019-05-14T09:07:34.690Z,80608.00
2019-05-14T09:08:49.869Z,20352.00
2019-05-14T09:09:34.705Z,16992.00
2019-05-14T09:10:35.159Z,17376.00
2019-05-14T09:11:36.593Z,18880.00
2019-05-14T09:12:38.604Z,16864.00
2019-05-14T09:13:35.161Z,13404.00
2019-05-14T09:14:34.631Z,12972.00
2019-05-14T09:15:34.618Z,14840.00
2019-05-14T09:16:45.520Z,32160.00
2019-05-14T09:17:35.583Z,93216.00
2019-05-14T09:18:38.252Z,25600.00
2019-05-14T09:19:35.167Z,26144.00
2019-05-14T09:20:34.555Z,29280.00
2019-05-14T09:21:34.573Z,24032.00
2019-05-14T09:22:34.536Z,29344.00
2019-05-14T09:23:34.519Z,110112.00
2019-05-14T09:24:34.505Z,104512.00
2019-05-14T09:25:34.526Z,105824.00
2019-05-14T09:26:34.518Z,109152.00
2019-05-14T09:27:34.521Z,67616.00
2019-05-14T09:28:34.469Z,122304.00
2019-05-14T09:29:34.456Z,118304.00
2019-05-14T09:30:34.463Z,125184.00
2019-05-14T09:31:34.439Z,22496.00
2019-05-14T09:32:34.447Z,19168.00
2019-05-14T09:33:34.427Z,20576.00
2019-05-14T09:34:35.676Z,20864.00
2019-05-14T09:35:34.394Z,102624.00
2019-05-14T09:36:34.384Z,33568.00
2019-05-14T09:37:34.365Z,71072.00
2019-05-14T09:38:34.396Z,60448.00
2019-05-14T09:39:35.169Z,33600.00
2019-05-14T09:40:34.327Z,27200.00
2019-05-14T09:41:34.313Z,23520.00
2019-05-14T09:42:34.318Z,20864.00
2019-05-14T09:43:34.331Z,18688.00
2019-05-14T09:44:34.334Z,25504.00
2019-05-14T09:45:34.316Z,134432.00
2019-05-14T09:46:34.272Z,62368.00
2019-05-14T09:47:34.260Z,104640.00
2019-05-14T09:48:34.256Z,133824.00
2019-05-14T09:49:34.305Z,134144.00
2019-05-14T09:50:35.175Z,137984.00
2019-05-14T09:51:34.228Z,130912.00
2019-05-14T09:52:34.203Z,135904.00
2019-05-14T09:53:34.192Z,132256.00
2019-05-14T09:54:34.194Z,133792.00
2019-05-14T09:55:34.166Z,86816.00
2019-05-14T09:56:35.677Z,32768.00
2019-05-14T09:57:34.193Z,43168.00
2019-05-14T09:58:34.140Z,32672.00
2019-05-14T09:59:34.678Z,29952.00
2019-05-14T10:00:34.125Z,22784.00
2019-05-14T10:01:34.122Z,16896.00
2019-05-14T10:02:34.144Z,13036.00
2019-05-14T10:03:34.093Z,10540.00
2019-05-14T10:04:34.068Z,9056.00
2019-05-14T10:05:35.682Z,8780.00
2019-05-14T10:06:34.691Z,10568.00
2019-05-14T10:07:34.062Z,15016.00
2019-05-14T10:08:34.038Z,22016.00
2019-05-14T10:09:34.102Z,26656.00
2019-05-14T10:10:34.060Z,29248.00
2019-05-14T10:11:34.006Z,37632.00
2019-05-14T10:12:38.255Z,36576.00
2019-05-14T10:13:34.986Z,144128.00
2019-05-14T10:14:33.980Z,139744.00
2019-05-14T10:15:33.962Z,44384.00
2019-05-14T10:16:33.949Z,82976.00
2019-05-14T10:17:33.960Z,108800.00
2019-05-14T10:18:33.954Z,36160.00
2019-05-14T10:19:33.931Z,32320.00
2019-05-14T10:20:41.188Z,22560.00
2019-05-14T10:21:35.696Z,19168.00
2019-05-14T10:22:33.894Z,18848.00
2019-05-14T10:23:33.899Z,18784.00
2019-05-14T10:24:33.866Z,18336.00
2019-05-14T10:25:33.854Z,16768.00
2019-05-14T10:26:33.834Z,16224.00
2019-05-14T10:27:33.849Z,18240.00
2019-05-14T10:28:33.826Z,23200.00
2019-05-14T10:29:33.825Z,29696.00
2019-05-14T10:30:33.797Z,36032.00
2019-05-14T10:31:33.812Z,45504.00
2019-05-14T10:32:33.782Z,48672.00
2019-05-14T10:33:33.862Z,37824.00
2019-05-14T10:34:33.754Z,67200.00
2019-05-14T10:35:33.763Z,120352.00
2019-05-14T10:36:34.692Z,139424.00
2019-05-14T10:37:33.741Z,139840.00
2019-05-14T10:38:33.729Z,136224.00
2019-05-14T10:39:33.705Z,23168.00
2019-05-14T10:40:33.809Z,16896.00
2019-05-14T10:41:34.196Z,13396.00
2019-05-14T10:42:33.685Z,11196.00
2019-05-14T10:43:33.702Z,9396.00
2019-05-14T10:44:33.639Z,8092.00
2019-05-14T10:45:33.674Z,7328.00
2019-05-14T10:46:34.203Z,6704.00
2019-05-14T10:47:33.612Z,6716.00
2019-05-14T10:48:33.690Z,7676.00
2019-05-14T10:49:33.604Z,9340.00
2019-05-14T10:50:37.778Z,11208.00
2019-05-14T10:51:34.564Z,12840.00
2019-05-14T10:52:33.562Z,14332.00
2019-05-14T10:53:33.548Z,16832.00
2019-05-14T10:54:33.590Z,20928.00
2019-05-14T10:55:33.516Z,26304.00
2019-05-14T10:56:33.524Z,38016.00
2019-05-14T10:57:33.521Z,45056.00
2019-05-14T10:58:34.697Z,38592.00
2019-05-14T10:59:33.490Z,29056.00
2019-05-14T11:00:33.511Z,24704.00
2019-05-14T11:01:34.198Z,20832.00
2019-05-14T11:02:33.450Z,17824.00
2019-05-14T11:03:33.453Z,15376.00
2019-05-14T11:04:34.608Z,13744.00
2019-05-14T11:05:33.474Z,12020.00
2019-05-14T11:06:33.420Z,10400.00
2019-05-14T11:07:33.423Z,9360.00
2019-05-14T11:08:33.410Z,9204.00
2019-05-14T11:09:33.366Z,11140.00
2019-05-14T11:10:33.396Z,14736.00
2019-05-14T11:11:33.368Z,18144.00
2019-05-14T11:12:35.200Z,20736.00
2019-05-14T11:13:33.339Z,30304.00
2019-05-14T11:14:33.344Z,26240.00
2019-05-14T11:15:33.361Z,31360.00
2019-05-14T11:16:33.292Z,36256.00
2019-05-14T11:17:33.300Z,61664.00
2019-05-14T11:18:33.293Z,81344.00
2019-05-14T11:19:33.263Z,40544.00
2019-05-14T11:20:33.286Z,35776.00
2019-05-14T11:21:33.273Z,31680.00
2019-05-14T11:22:33.241Z,32224.00
2019-05-14T11:23:33.222Z,42080.00
2019-05-14T11:24:33.271Z,44800.00
2019-05-14T11:25:33.200Z,44128.00
2019-05-14T11:26:33.188Z,113600.00
2019-05-14T11:27:33.186Z,70656.00
2019-05-14T11:28:33.186Z,57472.00
2019-05-14T11:29:33.159Z,29408.00
2019-05-14T11:30:33.177Z,28128.00
2019-05-14T11:31:34.352Z,28896.00
2019-05-14T11:32:33.137Z,32128.00
2019-05-14T11:33:33.109Z,33184.00
2019-05-14T11:34:33.100Z,121472.00
2019-05-14T11:35:33.122Z,63232.00
2019-05-14T11:36:33.072Z,124256.00
2019-05-14T11:37:33.098Z,135776.00
2019-05-14T11:38:37.163Z,32832.00
2019-05-14T11:39:33.049Z,27968.00
2019-05-14T11:40:33.066Z,26464.00
2019-05-14T11:41:33.051Z,25440.00
2019-05-14T11:42:33.048Z,24832.00
2019-05-14T11:43:33.003Z,22368.00
2019-05-14T11:44:33.012Z,20672.00
2019-05-14T11:45:32.984Z,20768.00
2019-05-14T11:46:44.421Z,21760.00
2019-05-14T11:47:34.068Z,25056.00
2019-05-14T11:48:32.953Z,27008.00
2019-05-14T11:49:32.939Z,28832.00
2019-05-14T11:50:32.948Z,28608.00
2019-05-14T11:51:58.850Z,30784.00
2019-05-14T11:52:33.899Z,44160.00
2019-05-14T11:53:32.887Z,58752.00
2019-05-14T11:54:32.888Z,37216.00
2019-05-14T11:55:32.916Z,28672.00
2019-05-14T11:56:32.856Z,23712.00
2019-05-14T11:57:32.864Z,20704.00
2019-05-14T11:58:32.860Z,20192.00
2019-05-14T11:59:32.847Z,20832.00
2019-05-14T12:00:32.824Z,23008.00
2019-05-14T12:01:32.873Z,25088.00
2019-05-14T12:02:32.828Z,28480.00
2019-05-14T12:03:32.790Z,36416.00
2019-05-14T12:04:32.786Z,30080.00
2019-05-14T12:05:32.763Z,27776.00
2019-05-14T12:06:32.790Z,29472.00
2019-05-14T12:07:32.737Z,33472.00
2019-05-14T12:08:32.724Z,48128.00
2019-05-14T12:09:32.772Z,67360.00
2019-05-14T12:10:32.714Z,42592.00
2019-05-14T12:11:32.745Z,30688.00